Latest Weather Observations for Warrnambool

IDV60801

Issued at 1:52 am EST Monday 17 June 2019 (issued every 10 minutes, with the page automatically refreshed every 10 minutes)

About weather observations | Map of weather stations | Latest weather observations for VIC | Other Formats
Station Details ID: 090186 Name: WARRNAMBOOL AIRPORT NDB Lat: -38.29 Lon: 142.45 Height: 70.8 m
Data from the previous 72 hours. | See also: Recent months at Warrnambool
Date/Time
EST
Temp
°C
App
Temp
°C
Dew
Point
°C
Rel
Hum
%
Delta-T
°C
Wind Press
QNH
hPa
Press
MSL
hPa
Rain since
9am
mm
Dir  Spd
km/h
Gust
km/h
Spd
kts
Gust
kts
17/01:30am 7.0 3.4 6.6 97 0.2 N 15 17 8 9 1022.3 1022.4 0.0
17/01:00am 6.9 3.2 6.5 97 0.2 N 15 19 8 10 1022.5 1022.6 0.0
17/12:30am 7.1 3.5 6.7 97 0.2 N 15 17 8 9 1022.6 1022.7 0.0
17/12:00am 6.7 3.4 6.3 97 0.2 N 13 17 7 9 1022.9 1023.0 0.0
 
Date/Time
EST
Temp
°C
App
Temp
°C
Dew
Point
°C
Rel
Hum
%
Delta-T
°C
Wind Press
QNH
hPa
Press
MSL
hPa
Rain since
9am
mm
Dir  Spd
km/h
Gust
km/h
Spd
kts
Gust
kts
16/11:30pm 5.9 2.4 5.3 96 0.3 N 13 15 7 8 1023.0 1023.1 0.0
16/11:00pm 6.3 2.9 5.7 96 0.3 N 13 15 7 8 1022.9 1023.0 0.0
16/10:30pm 6.8 3.8 6.2 96 0.3 N 11 13 6 7 1022.9 1023.0 0.0
16/10:00pm 7.4 3.8 6.8 96 0.3 N 15 17 8 9 1022.8 1022.9 0.0
16/09:30pm 6.9 3.6 6.3 96 0.3 N 13 17 7 9 1022.8 1022.9 0.0
16/09:00pm 6.9 3.6 6.2 95 0.3 N 13 15 7 8 1022.6 1022.7 0.0
16/08:30pm 7.4 4.2 6.7 95 0.3 N 13 15 7 8 1022.5 1022.6 0.0
16/08:00pm 7.0 3.6 6.1 94 0.4 N 13 15 7 8 1022.2 1022.3 0.0
16/07:30pm 6.6 3.5 5.6 93 0.4 N 11 13 6 7 1022.0 1022.1 0.0
16/07:00pm 7.0 4.0 5.8 92 0.5 N 11 11 6 6 1021.8 1021.9 0.0
16/06:30pm 8.0 5.5 6.5 90 0.7 N 9 11 5 6 1021.5 1021.6 0.0
16/06:00pm 8.8 6.4 6.9 88 0.9 NNW 9 9 5 5 1021.4 1021.5 0.0
16/05:30pm 9.3 6.8 6.7 84 1.2 NNW 9 11 5 6 1021.1 1021.2 0.0
16/05:00pm 11.7 9.2 8.4 80 1.6 NNW 11 13 6 7 1020.9 1021.0 0.0
16/04:30pm 13.6 11.0 9.3 75 2.2 NNW 13 17 7 9 1020.8 1020.9 0.0
16/04:00pm 14.6 11.3 9.4 71 2.7 NNW 17 20 9 11 1020.7 1020.8 0.0
16/03:30pm 15.2 11.4 8.9 66 3.2 NW 19 24 10 13 1020.8 1020.9 0.0
16/03:00pm 15.4 11.5 9.3 67 3.1 NW 20 26 11 14 1020.7 1020.8 0.0
16/02:30pm 15.6 11.8 9.9 69 3.0 NW 20 28 11 15 1020.6 1020.7 0.0
16/02:00pm 15.7 12.3 10.5 71 2.7 NNW 19 24 10 13 1020.7 1020.8 0.0
16/01:30pm 15.7 11.7 10.5 71 2.8 NNW 22 32 12 17 1021.0 1021.1 0.0
16/01:00pm 15.6 12.0 10.4 71 2.7 NNW 20 28 11 15 1021.1 1021.2 0.0
16/12:30pm 15.3 11.9 10.7 74 2.4 NNW 19 28 10 15 1021.2 1021.3 0.0
16/12:00pm 15.0 11.5 11.0 77 2.1 NW 20 26 11 14 1021.5 1021.6 0.0
16/11:30am 14.6 11.4 11.2 80 1.8 N 19 24 10 13 1021.7 1021.8 0.0
16/11:00am 13.7 11.2 11.2 85 1.3 N 15 19 8 10 1022.1 1022.2 0.0
16/10:30am 12.6 9.1 10.3 86 1.2 N 19 24 10 13 1022.0 1022.1 0.0
16/10:00am 11.2 7.5 9.6 90 0.8 N 19 22 10 12 1021.9 1022.0 0.0
16/09:30am 10.0 6.6 9.2 95 0.4 N 17 20 9 11 1021.9 1022.0 0.0
16/09:00am 8.4 5.1 8.1 98 0.1 N 15 17 8 9 1021.8 1021.9 0.0
16/08:30am 7.4 3.9 7.1 98 0.1 N 15 17 8 9 1021.7 1021.8 0.0
16/08:00am 6.5 2.4 6.2 98 0.1 N 17 19 9 10 1021.5 1021.6 0.0
16/07:30am 5.9 2.4 5.5 97 0.2 N 13 15 7 8 1021.2 1021.3 0.0
16/07:00am 6.5 3.1 6.1 97 0.2 N 13 13 7 7 1020.8 1020.9 0.0
16/06:30am 6.3 2.9 5.7 96 0.3 N 13 15 7 8 1020.5 1020.6 0.0
16/06:00am 6.9 3.6 6.3 96 0.3 N 13 15 7 8 1020.3 1020.4 0.0
16/05:30am 7.9 4.0 7.3 96 0.3 N 17 17 9 9 1019.9 1020.0 0.0
16/05:00am 8.3 5.3 7.7 96 0.3 N 13 15 7 8 1019.9 1020.0 0.0
16/04:30am 7.9 4.8 7.3 96 0.3 N 13 15 7 8 1020.0 1020.1 0.0
16/04:00am 7.6 4.4 6.9 95 0.3 N 13 15 7 8 1020.0 1020.1 0.0
16/03:30am 8.6 5.2 7.7 94 0.4 N 15 17 8 9 1020.2 1020.3 0.0
16/03:00am 9.0 5.3 8.1 94 0.4 N 17 19 9 10 1020.3 1020.4 0.0
16/02:30am 9.1 5.5 8.5 96 0.3 N 17 20 9 11 1020.3 1020.4 0.0
16/02:00am 8.5 5.6 8.1 97 0.2 N 13 17 7 9 1020.3 1020.4 0.0
16/01:30am 8.0 5.0 7.6 97 0.2 N 13 15 7 8 1020.2 1020.3 0.0
16/01:00am 8.1 4.7 7.7 97 0.2 NNE 15 17 8 9 1020.2 1020.3 0.0
16/12:30am 8.8 6.0 8.4 97 0.2 NNE 13 17 7 9 1020.4 1020.5 0.0
16/12:00am 9.4 7.1 8.9 97 0.2 NNE 11 15 6 8 1020.7 1020.8 0.0
 
Date/Time
EST
Temp
°C
App
Temp
°C
Dew
Point
°C
Rel
Hum
%
Delta-T
°C
Wind Press
QNH
hPa
Press
MSL
hPa
Rain since
9am
mm
Dir  Spd
km/h
Gust
km/h
Spd
kts
Gust
kts
15/11:30pm 9.4 7.1 8.9 97 0.2 NNE 11 13 6 7 1020.9 1021.0 0.0
15/11:00pm 9.0 8.7 8.6 97 0.2 CALM 0 0 0 0 1020.9 1021.0 0.0
15/10:30pm 9.2 8.9 8.7 97 0.2 CALM 0 2 0 1 1020.9 1021.0 0.0
15/10:00pm 9.0 7.4 8.6 97 0.2 NE 7 7 4 4 1021.1 1021.2 0.0
15/09:30pm 9.1 7.5 8.6 97 0.2 NE 7 9 4 5 1021.1 1021.2 0.0
15/09:00pm 9.1 7.1 8.6 97 0.2 NNE 9 11 5 6 1021.1 1021.2 0.0
15/08:30pm 9.3 6.9 8.8 97 0.2 NNE 11 13 6 7 1021.1 1021.2 0.0
15/08:00pm 9.0 7.0 8.6 97 0.2 NNE 9 11 5 6 1021.1 1021.2 0.0
15/07:30pm 8.8 7.1 8.2 96 0.3 N 7 7 4 4 1021.0 1021.1 0.0
15/07:00pm 9.2 7.6 8.6 96 0.3 N 7 7 4 4 1020.8 1020.9 0.0
15/06:30pm 8.4 6.5 7.6 95 0.4 N 7 9 4 5 1020.7 1020.8 0.0
15/06:00pm 7.9 5.8 6.7 92 0.6 NNW 7 9 4 5 1020.5 1020.6 0.0
15/05:30pm 8.4 5.9 6.5 88 0.9 NNW 9 11 5 6 1020.4 1020.5 0.0
15/05:00pm 10.5 8.4 8.4 87 1.0 NW 9 9 5 5 1020.1 1020.2 0.0
15/04:30pm 11.3 9.4 8.9 85 1.2 NNW 9 13 5 7 1019.9 1020.0 0.0
15/04:00pm 12.9 11.1 9.5 80 1.7 NNW 9 13 5 7 1019.7 1019.8 0.0
15/03:30pm 13.6 11.4 9.3 75 2.2 WNW 11 17 6 9 1019.8 1019.9 0.0
15/03:00pm 13.8 10.7 8.8 72 2.5 WNW 15 20 8 11 1019.7 1019.8 0.0
15/02:30pm 13.7 10.7 9.2 74 2.3 NW 15 22 8 12 1019.8 1019.9 0.0
15/02:00pm 13.8 10.6 10.0 78 2.0 NW 17 24 9 13 1020.0 1020.1 0.0
15/01:30pm 13.8 11.1 10.2 79 1.9 NW 15 20 8 11 1020.1 1020.2 0.0
15/01:00pm 13.4 10.2 9.8 79 1.8 NW 17 24 9 13 1020.4 1020.5 0.0
15/12:30pm 12.9 9.7 9.9 82 1.5 NW 17 22 9 12 1020.7 1020.8 0.0
15/12:00pm 12.6 9.6 10.7 88 1.0 NW 17 20 9 11 1021.0 1021.1 0.0
15/11:38am 12.3 9.0 11.0 92 0.7 NW 19 22 10 12 1021.2 1021.3 0.0
15/11:30am 12.0 8.6 10.7 92 0.7 NW 19 24 10 13 1021.3 1021.4 0.0
15/11:28am 12.0 8.6 10.7 92 0.7 NW 19 24 10 13 1021.3 1021.4 0.0
15/11:00am 11.9 8.7 11.4 97 0.3 NNW 19 24 10 13 1021.5 1021.6 0.0
15/10:32am 10.9 7.6 10.9 100 0.0 NNW 19 26 10 14 1021.5 1021.6 0.0
15/10:30am 10.7 7.3 10.7 100 0.0 NNW 19 24 10 13 1021.5 1021.6 0.0
15/10:00am 9.4 5.7 9.4 100 0.0 NNW 19 24 10 13 1021.4 1021.5 0.0
15/09:36am 9.1 5.3 9.1 100 0.0 NNW 19 24 10 13 1021.3 1021.4 0.0
15/09:30am 8.9 4.9 8.9 100 0.0 NNW 20 24 11 13 1021.3 1021.4 0.0
15/09:00am 8.6 4.5 8.6 100 0.0 NNW 20 26 11 14 1021.1 1021.2 3.6
15/08:30am 8.5 5.3 8.5 100 0.0 NW 15 19 8 10 1020.8 1020.9 3.6
15/08:06am 8.2 4.6 8.2 100 0.0 NW 17 20 9 11 1020.6 1020.7 3.6
15/08:00am 8.1 4.4 8.1 100 0.0 NW 17 20 9 11 1020.5 1020.6 3.6
15/07:53am 8.0 5.1 8.0 100 0.0 NNW 13 17 7 9 1020.5 1020.6 3.2
15/07:30am 7.9 4.9 7.9 100 0.0 NNW 13 15 7 8 1020.3 1020.4 3.2
15/07:27am 7.7 4.7 7.7 100 0.0 NNW 13 15 7 8 1020.3 1020.4 3.2
15/07:00am 8.5 4.9 8.5 100 0.0 NNW 17 20 9 11 1020.0 1020.1 3.2
15/06:30am 8.7 5.2 8.7 100 0.0 NNW 17 22 9 12 1019.7 1019.8 3.2
15/06:29am 8.6 5.1 8.6 100 0.0 NNW 17 20 9 11 1019.7 1019.8 3.2
15/06:03am 7.6 4.2 7.5 99 0.0 NNW 15 17 8 9 1019.4 1019.5 3.2
15/06:00am 7.6 4.2 7.5 99 0.0 NNW 15 19 8 10 1019.3 1019.4 3.2
15/05:30am 8.0 4.7 8.0 100 0.0 NNW 15 19 8 10 1019.1 1019.2 3.2
15/05:20am 7.3 3.8 7.2 99 0.0 NNW 15 17 8 9 1019.1 1019.2 3.2
15/05:00am 7.3 3.4 7.2 99 0.0 N 17 17 9 9 1018.8 1018.9 3.2
15/04:30am 7.9 4.9 7.8 99 0.0 N 13 19 7 10 1018.8 1018.9 3.2
15/04:00am 8.9 5.4 8.8 99 0.0 NNW 17 20 9 11 1018.7 1018.8 3.2
15/03:30am 9.9 7.0 9.8 99 0.1 NNW 15 19 8 10 1018.8 1018.9 3.2
15/03:00am 10.0 6.8 9.9 99 0.1 NNW 17 19 9 10 1018.8 1018.9 3.2
15/02:49am 9.8 6.5 9.5 98 0.1 NNW 17 20 9 11 1018.8 1018.9 3.2
15/02:30am 9.8 6.9 9.5 98 0.1 NNW 15 19 8 10 1018.8 1018.9 3.2
15/02:00am 9.9 7.7 9.4 97 0.2 NW 11 15 6 8 1018.8 1018.9 3.2
15/01:57am 9.9 7.7 9.4 97 0.2 NW 11 15 6 8 1018.8 1018.9 3.2
15/01:30am 9.8 6.8 9.3 97 0.2 NNW 15 20 8 11 1018.7 1018.8 3.2
15/01:00am 9.8 6.8 9.3 97 0.2 NNW 15 17 8 9 1018.8 1018.9 3.2
15/12:49am 9.7 6.7 9.2 97 0.2 NNW 15 19 8 10 1018.8 1018.9 3.0
15/12:30am 9.4 6.3 8.8 96 0.3 NNW 15 19 8 10 1018.8 1018.9 3.0
15/12:00am 9.2 6.0 8.6 96 0.3 NNW 15 19 8 10 1018.8 1018.9 3.0
 
Date/Time
EST
Temp
°C
App
Temp
°C
Dew
Point
°C
Rel
Hum
%
Delta-T
°C
Wind Press
QNH
hPa
Press
MSL
hPa
Rain since
9am
mm
Dir  Spd
km/h
Gust
km/h
Spd
kts
Gust
kts
14/11:30pm 9.7 5.7 8.9 95 0.4 NNW 20 26 11 14 1018.8 1018.9 3.0
14/11:21pm 9.5 6.0 8.7 95 0.4 NNW 17 20 9 11 1018.9 1019.0 3.0
14/11:00pm 9.8 6.7 8.9 94 0.4 WNW 15 20 8 11 1019.0 1019.1 2.8
14/10:45pm 9.8 7.5 8.9 94 0.4 W 11 15 6 8 1019.1 1019.2 2.0
14/10:30pm 9.5 7.4 8.4 93 0.5 N 9 13 5 7 1019.0 1019.1 1.8
14/10:00pm 9.6 7.2 8.5 93 0.5 N 11 15 6 8 1018.9 1019.0 1.8
14/09:30pm 9.6 6.8 8.4 92 0.6 N 13 15 7 8 1018.9 1019.0 1.8
14/09:00pm 9.8 6.6 8.6 92 0.6 NNW 15 19 8 10 1018.9 1019.0 1.8
14/08:30pm 9.3 6.0 7.9 91 0.7 NNW 15 17 8 9 1018.8 1018.9 1.8
14/08:00pm 10.0 6.5 8.6 91 0.7 NW 17 22 9 12 1018.7 1018.8 1.8
14/07:30pm 8.5 5.4 7.1 91 0.7 N 13 15 7 8 1018.6 1018.7 1.8
14/07:13pm 8.1 4.8 6.6 90 0.7 NNW 13 17 7 9 1018.4 1018.5 1.8
14/07:03pm 7.9 4.6 6.2 89 0.8 NNW 13 15 7 8 1018.3 1018.4 1.8
14/07:00pm 8.1 4.8 6.4 89 0.8 NNW 13 15 7 8 1018.2 1018.3 1.8
14/06:30pm 8.6 5.8 6.9 89 0.8 NW 11 13 6 7 1017.9 1018.0 1.8
14/06:00pm 8.4 5.4 6.0 85 1.1 NW 11 15 6 8 1017.6 1017.7 1.8
14/05:30pm 10.8 6.6 7.5 80 1.6 WNW 19 24 10 13 1017.2 1017.3 1.8
14/05:00pm 11.2 6.6 8.1 81 1.5 W 22 28 12 15 1016.9 1017.0 1.8
14/04:30pm 12.5 7.7 9.0 79 1.8 W 24 32 13 17 1016.6 1016.7 1.8
14/04:00pm 13.1 8.5 9.5 79 1.8 WNW 24 33 13 18 1016.4 1016.5 1.8
14/03:35pm 14.3 10.2 11.3 82 1.6 W 24 37 13 20 1016.2 1016.3 1.8
14/03:30pm 14.2 9.4 11.5 84 1.4 W 28 37 15 20 1016.1 1016.2 1.8
14/03:06pm 12.9 9.5 11.1 89 0.9 W 20 28 11 15 1016.0 1016.1 1.8
14/03:00pm 12.8 9.4 11.2 90 0.8 W 20 26 11 14 1015.9 1016.0 1.8
14/02:30pm 11.4 6.5 10.0 91 0.7 W 26 35 14 19 1015.8 1015.9 1.8
14/02:18pm 11.3 5.2 9.6 89 0.9 W 32 50 17 27 1015.8 1015.9 1.8
14/02:12pm 12.1 6.6 9.3 83 1.4 W 28 50 15 27 1015.8 1015.9 1.2
14/02:00pm 13.4 9.8 10.6 83 1.5 W 20 32 11 17 1015.5 1015.6 1.2
14/01:34pm 13.2 9.8 11.1 87 1.1 WNW 20 32 11 17 1015.6 1015.7 1.2
14/01:30pm 13.0 9.1 10.9 87 1.1 WNW 22 32 12 17 1015.6 1015.7 1.2
14/01:00pm 12.8 9.5 11.5 92 0.7 WNW 20 30 11 16 1015.8 1015.9 1.2
14/12:37pm 12.5 9.8 11.7 95 0.4 WNW 17 24 9 13 1015.8 1015.9 1.2
14/12:30pm 12.3 9.5 11.5 95 0.4 NW 17 24 9 13 1015.8 1015.9 1.2
14/12:08pm 11.7 9.6 11.1 96 0.3 WNW 13 22 7 12 1016.1 1016.2 1.2
14/12:00pm 11.2 8.2 10.6 96 0.3 WNW 17 26 9 14 1016.2 1016.3 1.2
14/11:30am 11.5 9.0 10.9 96 0.3 NW 15 20 8 11 1016.5 1016.6 0.6
14/11:05am 11.6 8.6 10.5 93 0.6 NNW 17 20 9 11 1017.0 1017.1 0.0
14/11:04am 11.7 8.7 10.8 94 0.5 NNW 17 20 9 11 1017.0 1017.1 0.0
14/11:00am 11.6 8.6 10.5 93 0.6 NNW 17 22 9 12 1017.0 1017.1 0.0
14/10:30am 11.9 6.3 10.3 90 0.8 NNW 30 39 16 21 1017.1 1017.2 0.0
14/10:00am 11.7 6.9 10.4 92 0.7 NNW 26 33 14 18 1017.0 1017.1 0.0
14/09:30am 11.3 6.8 10.2 93 0.6 NNW 24 32 13 17 1016.8 1016.9 0.0
14/09:00am 10.0 6.0 9.2 95 0.4 NNW 20 26 11 14 1016.8 1016.9 1.8
14/08:30am 9.6 5.2 8.8 95 0.4 NNW 22 28 12 15 1016.6 1016.7 1.8
14/08:00am 9.3 5.4 8.7 96 0.3 N 19 24 10 13 1016.5 1016.6 1.8
14/07:30am 9.4 5.3 8.8 96 0.3 N 20 28 11 15 1016.4 1016.5 1.8
14/07:00am 8.5 4.3 8.1 97 0.2 N 20 24 11 13 1016.1 1016.2 1.8
14/06:30am 8.2 4.0 7.6 96 0.3 N 19 24 10 13 1015.9 1016.0 1.8
14/06:00am 8.3 4.0 7.7 96 0.3 NNW 20 24 11 13 1016.0 1016.1 1.8
14/05:30am 8.6 4.5 8.0 96 0.3 NNW 19 22 10 12 1015.9 1016.0 1.8
14/05:07am 9.0 5.8 8.4 96 0.3 NNW 15 20 8 11 1015.9 1016.0 1.8
14/05:00am 9.1 5.2 8.5 96 0.3 NNW 19 28 10 15 1015.9 1016.0 1.8
14/04:55am 9.1 4.6 8.5 96 0.3 NNW 22 30 12 16 1015.9 1016.0 1.6
14/04:30am 8.9 4.7 8.1 95 0.4 N 20 28 11 15 1015.9 1016.0 1.2
14/04:00am 8.8 4.2 8.0 95 0.4 N 22 28 12 15 1016.0 1016.1 1.2
14/03:30am 9.0 5.4 8.4 96 0.3 N 17 22 9 12 1016.1 1016.2 1.2
14/03:00am 8.7 4.7 8.3 97 0.2 N 19 24 10 13 1016.2 1016.3 1.2
14/02:30am 7.8 3.6 7.4 97 0.2 N 19 20 10 11 1016.2 1016.3 1.2
14/02:00am 8.5 4.2 7.9 96 0.3 N 20 26 11 14 1016.2 1016.3 1.2

Other formats

Comma delimited format used in spreadsheet applications
http://www.bom.gov.au/fwo/IDV60801/IDV60801.94837.axf

JavaScript Object Notation format (JSON) in row-major order
http://www.bom.gov.au/fwo/IDV60801/IDV60801.94837.json

Data quality

Most of these data are generated automatically and are frequently updated. Quality checks on data are not normally performed. It is possible for incorrect values to appear. Refer to information at About Latest Weather Observations and please check the disclaimer before using these data.